createdAt,value
2019-05-02T00:01:11.143Z,7.40
2019-05-02T00:03:41.090Z,7.43
2019-05-02T00:06:09.116Z,8.27
2019-05-02T00:08:35.457Z,8.40
2019-05-02T00:11:02.023Z,9.90
2019-05-02T00:13:28.576Z,8.70
2019-05-02T00:15:56.429Z,8.10
2019-05-02T00:18:22.920Z,8.50
2019-05-02T00:20:49.568Z,8.60
2019-05-02T00:23:16.118Z,8.63
2019-05-02T00:25:42.399Z,10.33
2019-05-02T00:28:12.308Z,8.20
2019-05-02T00:30:37.183Z,8.30
2019-05-02T00:33:03.730Z,9.13
2019-05-02T00:35:29.955Z,8.37
2019-05-02T00:37:57.345Z,8.77
2019-05-02T00:40:25.770Z,9.10
2019-05-02T00:42:53.270Z,9.53
2019-05-02T00:45:24.090Z,9.10
2019-05-02T00:48:03.326Z,8.97
2019-05-02T00:50:31.463Z,8.70
2019-05-02T00:52:57.703Z,8.17
2019-05-02T00:55:23.977Z,8.40
2019-05-02T00:57:50.859Z,8.00
2019-05-02T01:00:19.786Z,9.00
2019-05-02T01:02:50.830Z,8.53
2019-05-02T01:05:17.054Z,8.27
2019-05-02T01:07:43.304Z,9.50
2019-05-02T01:10:10.454Z,8.53
2019-05-02T01:12:39.823Z,7.93
2019-05-02T01:15:08.380Z,8.83
2019-05-02T01:17:34.028Z,9.30
2019-05-02T01:20:00.266Z,7.40
2019-05-02T01:22:26.492Z,8.13
2019-05-02T01:24:52.818Z,7.10
2019-05-02T01:27:30.064Z,6.87
2019-05-02T01:30:14.788Z,6.93
2019-05-02T01:32:42.984Z,8.00
2019-05-02T01:35:11.219Z,7.37
2019-05-02T01:37:56.121Z,7.50
2019-05-02T01:40:22.428Z,5.83
2019-05-02T01:42:50.710Z,6.57
2019-05-02T01:45:17.879Z,7.73
2019-05-02T01:47:44.144Z,6.97
2019-05-02T01:50:11.630Z,7.43
2019-05-02T01:52:37.878Z,8.43
2019-05-02T01:55:05.732Z,8.10
2019-05-02T01:57:32.096Z,7.20
2019-05-02T01:59:58.343Z,8.70
2019-05-02T02:02:28.081Z,7.20
2019-05-02T02:04:56.888Z,7.53
2019-05-02T02:07:21.257Z,7.97
2019-05-02T02:09:47.552Z,7.40
2019-05-02T02:12:13.822Z,7.37
2019-05-02T02:14:40.078Z,8.20
2019-05-02T02:17:10.120Z,7.50
2019-05-02T02:19:42.048Z,7.27
2019-05-02T02:22:12.852Z,6.23
2019-05-02T02:24:40.998Z,7.17
2019-05-02T02:27:07.456Z,7.67
2019-05-02T02:29:33.690Z,7.47
2019-05-02T02:31:59.943Z,6.70
2019-05-02T02:34:28.988Z,7.13
2019-05-02T02:36:54.344Z,6.90
2019-05-02T02:39:20.623Z,6.33
2019-05-02T02:41:52.305Z,6.60
2019-05-02T02:44:40.094Z,7.83
2019-05-02T02:47:04.601Z,6.80
2019-05-02T02:49:30.852Z,7.00
2019-05-02T02:51:58.094Z,6.50
2019-05-02T02:54:25.268Z,7.03
2019-05-02T02:56:51.539Z,6.03
2019-05-02T02:59:19.670Z,6.00
2019-05-02T03:01:46.050Z,6.20
2019-05-02T03:04:12.469Z,6.40
2019-05-02T03:06:45.082Z,5.83
2019-05-02T03:09:07.327Z,5.70
2019-05-02T03:11:35.515Z,7.13
2019-05-02T03:14:19.195Z,6.30
2019-05-02T03:16:46.884Z,6.90
2019-05-02T03:19:14.679Z,6.77
2019-05-02T03:21:54.331Z,7.47
2019-05-02T03:24:22.399Z,8.40
2019-05-02T03:26:55.166Z,6.77
2019-05-02T03:29:18.034Z,6.00
2019-05-02T03:31:44.476Z,6.03
2019-05-02T03:34:10.715Z,6.20
2019-05-02T03:36:37.884Z,6.17
2019-05-02T03:39:13.263Z,5.97
2019-05-02T03:41:33.271Z,6.10
2019-05-02T03:44:10.688Z,5.53
2019-05-02T03:46:29.018Z,6.87
2019-05-02T03:49:05.539Z,6.43
2019-05-02T03:51:25.294Z,5.33
2019-05-02T03:53:51.977Z,5.80
2019-05-02T03:56:18.201Z,6.03
2019-05-02T03:58:48.508Z,6.10
2019-05-02T04:01:13.510Z,5.50
2019-05-02T04:03:43.413Z,5.10
2019-05-02T04:06:13.977Z,5.63
2019-05-02T04:08:37.140Z,5.40
2019-05-02T04:11:16.976Z,5.00
2019-05-02T04:13:43.463Z,6.37
2019-05-02T04:16:15.766Z,5.27
2019-05-02T04:18:38.774Z,6.10
2019-05-02T04:21:05.002Z,5.50
2019-05-02T04:23:31.217Z,6.10
2019-05-02T04:25:58.280Z,5.20
2019-05-02T04:28:24.523Z,5.13
2019-05-02T04:30:51.803Z,6.13
2019-05-02T04:33:19.020Z,5.30
2019-05-02T04:35:45.288Z,4.70
2019-05-02T04:38:19.986Z,5.67
2019-05-02T04:40:41.815Z,5.50
2019-05-02T04:43:11.280Z,4.90
2019-05-02T04:45:51.706Z,4.90
2019-05-02T04:48:04.363Z,4.80
2019-05-02T04:50:30.675Z,5.43
2019-05-02T04:52:59.299Z,4.60
2019-05-02T04:55:30.346Z,4.03
2019-05-02T04:57:53.215Z,5.00
2019-05-02T05:00:28.373Z,4.70
2019-05-02T05:02:53.781Z,5.07
2019-05-02T05:05:25.721Z,4.60
2019-05-02T05:07:49.495Z,4.37
2019-05-02T05:10:18.351Z,3.90
2019-05-02T05:12:44.125Z,4.20
2019-05-02T05:15:15.216Z,4.47
2019-05-02T05:17:38.867Z,4.40
2019-05-02T05:20:12.249Z,3.77
2019-05-02T05:22:36.504Z,4.10
2019-05-02T05:25:07.439Z,4.13
2019-05-02T05:27:33.949Z,3.57
2019-05-02T05:30:08.510Z,4.10
2019-05-02T05:32:28.359Z,4.83
2019-05-02T05:34:54.572Z,3.80
2019-05-02T05:37:22.070Z,4.23
2019-05-02T05:39:52.447Z,3.50
2019-05-02T05:42:17.848Z,3.97
2019-05-02T05:44:44.361Z,3.63
2019-05-02T05:47:12.075Z,4.43
2019-05-02T05:49:38.742Z,3.70
2019-05-02T05:52:05.203Z,3.90
2019-05-02T05:54:33.067Z,4.40
2019-05-02T05:56:59.572Z,3.57
2019-05-02T05:59:28.155Z,3.47
2019-05-02T06:01:54.082Z,4.27
2019-05-02T06:04:23.998Z,3.73
2019-05-02T06:06:48.689Z,4.27
2019-05-02T06:09:14.921Z,3.60
2019-05-02T06:11:41.165Z,3.40
2019-05-02T06:14:07.418Z,3.33
2019-05-02T06:16:35.359Z,3.43
2019-05-02T06:19:02.719Z,3.73
2019-05-02T06:21:28.960Z,4.30
2019-05-02T06:23:55.210Z,4.37
2019-05-02T06:26:34.893Z,3.77
2019-05-02T06:29:01.134Z,4.20
2019-05-02T06:31:27.388Z,3.57
2019-05-02T06:33:53.964Z,3.30
2019-05-02T06:36:20.264Z,3.10
2019-05-02T06:38:46.483Z,3.80
2019-05-02T06:41:16.158Z,3.23
2019-05-02T06:43:41.149Z,3.43
2019-05-02T06:46:15.980Z,4.20
2019-05-02T06:48:37.215Z,3.33
2019-05-02T06:51:03.588Z,3.50
2019-05-02T06:53:29.968Z,3.47
2019-05-02T06:55:57.212Z,3.00
2019-05-02T06:58:23.465Z,3.17
2019-05-02T07:00:57.458Z,3.70
2019-05-02T07:03:17.941Z,4.03
2019-05-02T07:05:44.169Z,3.50
2019-05-02T07:08:12.056Z,3.87
2019-05-02T07:10:44.944Z,3.17
2019-05-02T07:13:10.794Z,3.17
2019-05-02T07:15:52.101Z,3.50
2019-05-02T07:18:20.452Z,3.30
2019-05-02T07:20:46.671Z,3.43
2019-05-02T07:23:16.076Z,3.73
2019-05-02T07:25:43.922Z,3.87
2019-05-02T07:28:10.754Z,3.47
2019-05-02T07:30:37.777Z,4.10
2019-05-02T07:33:04.000Z,3.77
2019-05-02T07:35:30.234Z,3.97
2019-05-02T07:37:56.481Z,4.80
2019-05-02T07:40:22.899Z,4.37
2019-05-02T07:42:49.168Z,4.13
2019-05-02T07:45:15.766Z,4.57
2019-05-02T07:47:42.468Z,4.47
2019-05-02T07:50:10.382Z,4.33
2019-05-02T07:52:40.908Z,4.70
2019-05-02T07:55:09.968Z,4.90
2019-05-02T07:57:35.106Z,4.30
2019-05-02T08:00:05.670Z,4.73
2019-05-02T08:02:32.038Z,4.83
2019-05-02T08:04:58.287Z,5.37
2019-05-02T08:07:27.215Z,4.90
2019-05-02T08:09:52.639Z,5.00
2019-05-02T08:12:18.983Z,4.60
2019-05-02T08:14:45.275Z,5.20
2019-05-02T08:17:17.280Z,5.03
2019-05-02T08:19:41.905Z,4.73
2019-05-02T08:22:13.147Z,4.60
2019-05-02T08:24:37.941Z,4.33
2019-05-02T08:27:06.339Z,5.80
2019-05-02T08:29:33.520Z,5.17
2019-05-02T08:31:59.768Z,5.83
2019-05-02T08:34:30.830Z,5.33
2019-05-02T08:36:58.843Z,4.93
2019-05-02T08:39:33.210Z,5.10
2019-05-02T08:42:00.691Z,4.50
2019-05-02T08:44:27.012Z,4.20
2019-05-02T08:46:53.350Z,4.90
2019-05-02T08:49:20.117Z,5.87
2019-05-02T08:51:46.552Z,4.47
2019-05-02T08:54:12.883Z,4.53
2019-05-02T08:56:39.126Z,4.67
2019-05-02T08:59:05.471Z,4.20
2019-05-02T09:01:35.377Z,4.40
2019-05-02T09:03:59.923Z,3.90
2019-05-02T09:06:26.152Z,4.10
2019-05-02T09:08:52.911Z,4.23
2019-05-02T09:11:19.137Z,4.40
2019-05-02T09:13:46.092Z,5.57
2019-05-02T09:16:12.488Z,4.27
2019-05-02T09:18:48.364Z,4.03
2019-05-02T09:21:06.887Z,4.47
2019-05-02T09:23:36.891Z,4.97
2019-05-02T09:26:02.615Z,4.50
2019-05-02T09:28:29.023Z,4.53
2019-05-02T09:30:57.353Z,4.60
2019-05-02T09:33:23.411Z,4.63
2019-05-02T09:35:51.547Z,5.13
2019-05-02T09:38:17.780Z,4.63
2019-05-02T09:40:47.210Z,5.10
2019-05-02T09:43:12.392Z,4.90
2019-05-02T09:45:41.272Z,5.10
2019-05-02T09:48:08.087Z,4.83
2019-05-02T09:50:38.077Z,5.07
2019-05-02T09:53:03.122Z,5.20
2019-05-02T09:55:31.635Z,4.33
2019-05-02T09:57:57.749Z,4.77
2019-05-02T10:00:32.399Z,5.27
2019-05-02T10:02:59.382Z,4.50
2019-05-02T10:05:25.752Z,4.97
2019-05-02T10:07:52.585Z,5.23
2019-05-02T10:10:19.185Z,4.23
2019-05-02T10:12:45.439Z,5.77
2019-05-02T10:15:16.008Z,5.20
2019-05-02T10:17:46.613Z,5.17
2019-05-02T10:20:12.498Z,5.33
2019-05-02T10:22:41.108Z,5.33
2019-05-02T10:25:07.968Z,5.40
2019-05-02T10:27:38.458Z,4.43
2019-05-02T10:30:11.969Z,4.57
2019-05-02T10:32:34.720Z,4.73
2019-05-02T10:35:02.129Z,5.13
2019-05-02T10:37:32.444Z,4.70
2019-05-02T10:39:56.705Z,5.10
2019-05-02T10:42:22.970Z,4.80
2019-05-02T10:44:49.319Z,5.00
2019-05-02T10:47:15.574Z,4.47
2019-05-02T10:49:46.341Z,5.07
2019-05-02T10:52:12.650Z,4.70
2019-05-02T10:54:38.884Z,4.87
2019-05-02T10:57:05.137Z,4.97
2019-05-02T10:59:32.753Z,4.10
2019-05-02T11:02:18.578Z,4.93
2019-05-02T11:04:46.694Z,4.63
2019-05-02T11:07:16.963Z,5.00
2019-05-02T11:09:42.020Z,5.00
2019-05-02T11:12:11.843Z,4.43
2019-05-02T11:14:51.991Z,5.33
2019-05-02T11:17:20.132Z,4.10
2019-05-02T11:19:48.281Z,5.03
2019-05-02T11:22:14.755Z,3.90
2019-05-02T11:24:41.781Z,4.93
2019-05-02T11:27:08.335Z,5.13
2019-05-02T11:29:34.728Z,4.00
2019-05-02T11:32:02.818Z,5.27
2019-05-02T11:34:29.140Z,4.77
2019-05-02T11:36:55.380Z,5.13
2019-05-02T11:39:31.803Z,4.40
2019-05-02T11:41:52.745Z,4.07
2019-05-02T11:44:19.320Z,3.50
2019-05-02T11:46:47.083Z,3.97
2019-05-02T11:49:13.463Z,3.90
2019-05-02T11:51:41.619Z,3.00
2019-05-02T11:54:09.402Z,3.63
2019-05-02T11:56:35.897Z,3.70
2019-05-02T11:59:03.031Z,3.43
2019-05-02T12:01:37.241Z,3.63
2019-05-02T12:03:57.497Z,3.83
2019-05-02T12:06:23.837Z,3.50
2019-05-02T12:08:52.265Z,3.20
2019-05-02T12:11:18.316Z,3.13
2019-05-02T12:13:47.340Z,3.00
2019-05-02T12:16:13.895Z,2.80
2019-05-02T12:18:41.884Z,3.27
2019-05-02T12:21:08.413Z,3.40
2019-05-02T12:23:36.246Z,3.57
2019-05-02T12:26:03.319Z,2.70
2019-05-02T12:28:29.540Z,3.23
2019-05-02T12:30:55.916Z,2.67
2019-05-02T12:33:24.073Z,3.53
2019-05-02T12:35:52.307Z,3.73
2019-05-02T12:38:18.586Z,3.07
2019-05-02T12:40:44.915Z,3.80
2019-05-02T12:43:12.039Z,3.07
2019-05-02T12:45:38.771Z,3.40
2019-05-02T12:48:05.255Z,3.97
2019-05-02T12:50:32.208Z,3.43
2019-05-02T12:52:58.535Z,3.30
2019-05-02T12:55:24.790Z,3.40
2019-05-02T12:57:52.345Z,3.33
2019-05-02T13:00:19.303Z,3.43
2019-05-02T13:02:47.625Z,3.10
2019-05-02T13:05:13.996Z,4.37
2019-05-02T13:07:42.837Z,3.47
2019-05-02T13:10:12.085Z,3.60
2019-05-02T13:12:43.184Z,2.70
2019-05-02T13:15:12.716Z,4.30
2019-05-02T13:17:43.885Z,3.37
2019-05-02T13:20:09.379Z,4.60
2019-05-02T13:22:54.415Z,3.83
2019-05-02T13:25:27.199Z,3.10
2019-05-02T13:27:52.195Z,3.20
2019-05-02T13:30:24.152Z,2.70
2019-05-02T13:32:53.753Z,2.80
2019-05-02T13:35:34.267Z,3.13
2019-05-02T13:38:02.783Z,2.60
2019-05-02T13:40:32.275Z,3.20
2019-05-02T13:42:58.936Z,2.80
2019-05-02T13:45:30.071Z,3.63
2019-05-02T13:47:56.405Z,2.77
2019-05-02T13:50:22.748Z,3.87
2019-05-02T13:52:53.022Z,2.40
2019-05-02T13:55:19.067Z,3.20
2019-05-02T13:57:46.990Z,3.40
2019-05-02T14:00:16.598Z,2.50
2019-05-02T14:02:42.926Z,3.13
2019-05-02T14:05:14.381Z,3.70
2019-05-02T14:07:42.971Z,2.87
2019-05-02T14:10:18.688Z,2.20
2019-05-02T14:13:03.187Z,2.57
2019-05-02T14:15:32.428Z,2.33
2019-05-02T14:17:58.873Z,2.80
2019-05-02T14:20:25.342Z,2.20
2019-05-02T14:22:52.706Z,2.40
2019-05-02T14:25:22.398Z,2.90
2019-05-02T14:27:53.858Z,2.80
2019-05-02T14:30:19.062Z,3.30
2019-05-02T14:32:46.924Z,2.83
2019-05-02T14:35:18.590Z,2.33
2019-05-02T14:37:43.618Z,2.30
2019-05-02T14:40:18.179Z,2.60
2019-05-02T14:42:44.427Z,3.17
2019-05-02T14:45:27.174Z,3.40
2019-05-02T14:47:42.365Z,3.03
2019-05-02T14:50:23.154Z,2.17
2019-05-02T14:52:42.202Z,2.20
2019-05-02T14:55:07.771Z,3.00
2019-05-02T14:57:34.017Z,2.33
2019-05-02T15:00:02.830Z,2.40
2019-05-02T15:02:34.629Z,3.03
2019-05-02T15:05:02.077Z,2.30
2019-05-02T15:07:28.506Z,2.37
2019-05-02T15:09:57.225Z,2.00
2019-05-02T15:12:24.051Z,2.60
2019-05-02T15:14:57.347Z,2.83
2019-05-02T15:17:18.714Z,3.07
2019-05-02T15:19:45.159Z,3.43
2019-05-02T15:22:12.436Z,2.47
2019-05-02T15:24:38.816Z,2.93
2019-05-02T15:27:12.274Z,3.30
2019-05-02T15:29:33.285Z,3.47
2019-05-02T15:32:07.658Z,2.57
2019-05-02T15:34:46.187Z,2.40
2019-05-02T15:37:06.768Z,2.93
2019-05-02T15:42:01.729Z,3.13
2019-05-02T15:44:28.116Z,2.90
2019-05-02T15:46:58.413Z,3.30
2019-05-02T15:49:22.531Z,3.03
2019-05-02T15:51:49.879Z,3.30
2019-05-02T15:54:18.823Z,4.33
2019-05-02T15:56:59.913Z,3.47
2019-05-02T15:59:32.450Z,3.83
2019-05-02T16:02:02.902Z,3.30
2019-05-02T16:04:32.063Z,3.30
2019-05-02T16:07:08.395Z,2.53
2019-05-02T16:09:34.945Z,2.97
2019-05-02T16:12:02.948Z,2.77
2019-05-02T16:14:34.109Z,2.40
2019-05-02T16:16:57.809Z,3.60
2019-05-02T16:19:29.122Z,3.60
2019-05-02T16:21:59.502Z,3.80
2019-05-02T16:24:25.885Z,3.17
2019-05-02T16:26:53.542Z,4.03
2019-05-02T16:29:26.812Z,3.10
2019-05-02T16:31:54.987Z,3.67
2019-05-02T16:34:22.608Z,4.10
2019-05-02T16:36:48.854Z,3.57
2019-05-02T16:39:15.474Z,5.27
2019-05-02T16:41:49.094Z,4.57
2019-05-02T16:44:12.692Z,3.97
2019-05-02T16:46:39.039Z,4.10
2019-05-02T16:49:08.839Z,3.50
2019-05-02T16:51:35.256Z,3.60
2019-05-02T16:54:04.995Z,3.13
2019-05-02T16:56:31.543Z,3.43
2019-05-02T16:58:57.922Z,3.80
2019-05-02T17:01:27.458Z,3.87
2019-05-02T17:03:53.074Z,4.53
2019-05-02T17:06:22.381Z,3.33
2019-05-02T17:09:11.908Z,4.07
2019-05-02T17:11:41.974Z,4.70
2019-05-02T17:14:11.984Z,4.43
2019-05-02T17:16:37.052Z,3.90
2019-05-02T17:19:03.388Z,4.50
2019-05-02T17:21:32.284Z,3.30
2019-05-02T17:23:57.799Z,3.60
2019-05-02T17:26:24.116Z,4.20
2019-05-02T17:28:52.080Z,4.20
2019-05-02T17:31:20.409Z,4.27
2019-05-02T17:33:50.946Z,4.97
2019-05-02T17:36:16.402Z,4.97
2019-05-02T17:38:42.742Z,4.00
2019-05-02T17:41:08.993Z,5.10
2019-05-02T17:43:37.475Z,4.67
2019-05-02T17:46:04.607Z,5.00
2019-05-02T17:48:34.229Z,5.07
2019-05-02T17:51:04.606Z,5.00
2019-05-02T17:53:33.777Z,5.07
2019-05-02T17:55:59.001Z,5.23
2019-05-02T17:58:25.284Z,4.27
2019-05-02T18:00:56.902Z,5.43
2019-05-02T18:03:24.085Z,4.57
2019-05-02T18:05:49.931Z,6.03
2019-05-02T18:08:16.207Z,4.70
2019-05-02T18:10:42.480Z,4.70
2019-05-02T18:13:12.149Z,4.90
2019-05-02T18:15:38.535Z,4.93
2019-05-02T18:18:06.903Z,5.47
2019-05-02T18:20:37.096Z,4.90
2019-05-02T18:23:02.786Z,4.50
2019-05-02T18:25:29.366Z,5.20
2019-05-02T18:27:55.751Z,5.80
2019-05-02T18:30:26.845Z,6.23
2019-05-02T18:32:52.870Z,5.27
2019-05-02T18:35:19.420Z,5.37
2019-05-02T18:41:46.122Z,4.97
2019-05-02T18:44:11.864Z,4.93
2019-05-02T18:46:41.685Z,4.40
2019-05-02T18:49:09.628Z,5.30
2019-05-02T18:51:37.836Z,4.80
2019-05-02T18:54:07.485Z,4.80
2019-05-02T18:56:55.521Z,5.00
2019-05-02T18:59:26.911Z,4.90
2019-05-02T19:01:56.182Z,4.80
2019-05-02T19:04:25.277Z,5.23
2019-05-02T19:06:53.380Z,5.60
2019-05-02T19:09:24.925Z,4.70
2019-05-02T19:11:52.383Z,4.10
2019-05-02T19:14:22.213Z,4.50
2019-05-02T19:16:52.082Z,4.23
2019-05-02T19:19:20.042Z,4.10
2019-05-02T19:21:49.167Z,3.97
2019-05-02T19:24:17.068Z,4.30
2019-05-02T19:26:49.162Z,4.80
2019-05-02T19:29:17.301Z,4.70
2019-05-02T19:31:46.392Z,4.80
2019-05-02T19:34:16.746Z,5.60
2019-05-02T19:36:44.496Z,4.87
2019-05-02T19:39:12.631Z,4.40
2019-05-02T19:41:43.904Z,5.53
2019-05-02T19:44:10.312Z,5.47
2019-05-02T19:46:39.040Z,4.93
2019-05-02T19:49:12.370Z,5.60
2019-05-02T19:51:37.186Z,5.00
2019-05-02T19:54:06.972Z,5.30
2019-05-02T19:56:45.874Z,6.23
2019-05-02T19:59:04.979Z,5.10
2019-05-02T20:01:33.040Z,6.03
2019-05-02T20:04:02.406Z,5.20
2019-05-02T20:06:32.494Z,5.10
2019-05-02T20:09:04.772Z,6.17
2019-05-02T20:11:32.986Z,6.07
2019-05-02T20:14:05.508Z,6.03
2019-05-02T20:16:44.084Z,6.07
2019-05-02T20:19:09.194Z,5.60
2019-05-02T20:21:38.775Z,5.40
2019-05-02T20:24:09.149Z,5.30
2019-05-02T20:26:36.496Z,5.93
2019-05-02T20:29:04.396Z,5.83
2019-05-02T20:31:32.276Z,6.00
2019-05-02T20:34:00.123Z,5.70
2019-05-02T20:36:28.181Z,6.37
2019-05-02T20:38:55.407Z,5.50
2019-05-02T20:41:22.924Z,6.30
2019-05-02T20:43:51.662Z,6.40
2019-05-02T20:46:18.971Z,7.17
2019-05-02T20:48:45.706Z,7.50
2019-05-02T20:51:12.685Z,7.50
2019-05-02T20:53:42.082Z,7.40
2019-05-02T20:56:08.528Z,8.13
2019-05-02T20:58:35.005Z,7.73
2019-05-02T21:01:06.179Z,8.57
2019-05-02T21:03:31.873Z,9.87
2019-05-02T21:06:05.713Z,9.50
2019-05-02T21:08:34.048Z,9.37
2019-05-02T21:11:01.927Z,8.60
2019-05-02T21:13:28.165Z,9.10
2019-05-02T21:15:55.118Z,8.13
2019-05-02T21:18:22.107Z,8.67
2019-05-02T21:20:48.549Z,8.77
2019-05-02T21:23:14.800Z,7.50
2019-05-02T21:25:41.692Z,7.20
2019-05-02T21:28:09.031Z,6.73
2019-05-02T21:30:35.375Z,7.50
2019-05-02T21:33:02.779Z,5.93
2019-05-02T21:35:29.092Z,5.00
2019-05-02T21:37:55.328Z,6.10
2019-05-02T21:40:22.704Z,5.70
2019-05-02T21:42:51.723Z,4.80
2019-05-02T21:45:18.078Z,5.37
2019-05-02T21:47:44.425Z,5.47
2019-05-02T21:50:13.705Z,4.87
2019-05-02T21:52:58.442Z,5.63
2019-05-02T21:55:29.342Z,4.97
2019-05-02T21:57:55.565Z,4.73
2019-05-02T22:00:44.692Z,4.80
2019-05-02T22:03:12.614Z,4.93
2019-05-02T22:05:39.120Z,6.53
2019-05-02T22:08:05.378Z,6.40
2019-05-02T22:10:32.141Z,5.27
2019-05-02T22:12:58.543Z,5.00
2019-05-02T22:15:24.791Z,4.93
2019-05-02T22:17:52.283Z,4.90
2019-05-02T22:20:18.608Z,4.60
2019-05-02T22:22:45.011Z,4.20
2019-05-02T22:25:11.642Z,4.03
2019-05-02T22:27:37.976Z,3.80
2019-05-02T22:30:05.817Z,4.20
2019-05-02T22:32:32.224Z,4.17
2019-05-02T22:34:58.493Z,3.97
2019-05-02T22:37:25.539Z,4.47
2019-05-02T22:39:56.343Z,3.90
2019-05-02T22:42:22.970Z,3.47
2019-05-02T22:44:49.313Z,3.40
2019-05-02T22:47:15.642Z,3.70
2019-05-02T22:49:42.382Z,3.90
2019-05-02T22:52:08.720Z,3.37
2019-05-02T22:54:34.967Z,3.67
2019-05-02T22:57:02.592Z,3.87
2019-05-02T22:59:28.979Z,3.77
2019-05-02T23:01:56.408Z,3.13
2019-05-02T23:04:23.568Z,3.53
2019-05-02T23:06:49.996Z,3.23
2019-05-02T23:09:16.757Z,3.07
2019-05-02T23:11:43.006Z,3.07
2019-05-02T23:14:09.378Z,3.50
2019-05-02T23:16:35.719Z,3.20
2019-05-02T23:19:02.785Z,3.40
2019-05-02T23:21:29.335Z,3.20
2019-05-02T23:23:56.066Z,3.23
2019-05-02T23:26:27.074Z,3.07
2019-05-02T23:29:02.295Z,3.07
2019-05-02T23:31:28.965Z,2.63
2019-05-02T23:33:57.900Z,2.47
2019-05-02T23:36:27.320Z,2.63
2019-05-02T23:38:53.796Z,2.50
2019-05-02T23:41:22.001Z,2.27
2019-05-02T23:43:48.204Z,2.63
2019-05-02T23:46:14.442Z,2.60
2019-05-02T23:48:41.939Z,1.80
2019-05-02T23:51:08.369Z,2.00
2019-05-02T23:53:34.775Z,2.20
2019-05-02T23:56:01.034Z,2.00
2019-05-02T23:58:27.286Z,2.10
